Time;durP1;ratioP1;P1;durP2;ratioP2;P2;SDS_P1;SDS_P2;PMS_P1;PMS_P2;Temp;Humidity;BMP_temperature;BMP_pressure;BME280_temperature;BME280_humidity;BME280_pressure;Samples;Min_cycle;Max_cycle;Signal;HPM_P1;HPM_P2
2023/06/16 00:04:21;;;;;;;3.28;1.65;;;;;;;18.40;44.02;100353.16;10221486;28;20051;-64
2023/06/16 00:09:25;;;;;;;4.25;1.67;;;;;;;18.31;44.16;100356.41;10221113;28;20054;-64
2023/06/16 00:14:27;;;;;;;8.10;1.98;;;;;;;18.21;44.89;100365.09;10222690;28;20048;-63
2023/06/16 00:19:29;;;;;;;3.67;1.65;;;;;;;18.13;45.27;100362.66;10221879;28;20511;-63
2023/06/16 00:24:30;;;;;;;1.77;1.50;;;;;;;18.01;45.60;100355.25;10228281;28;20047;-64
2023/06/16 00:29:32;;;;;;;4.40;1.92;;;;;;;17.96;45.47;100359.69;10228315;28;20047;-63
2023/06/16 00:34:33;;;;;;;5.20;1.85;;;;;;;17.91;45.43;100357.66;10228707;28;20048;-63
2023/06/16 00:39:35;;;;;;;6.07;1.75;;;;;;;17.85;45.55;100361.25;10232735;28;20491;-64
2023/06/16 00:44:36;;;;;;;3.80;1.92;;;;;;;17.81;45.21;100366.28;10229438;28;20039;-64
2023/06/16 00:49:38;;;;;;;3.22;1.73;;;;;;;17.72;45.28;100364.06;10229617;28;20054;-62
2023/06/16 00:54:40;;;;;;;4.50;1.80;;;;;;;17.63;45.21;100355.34;10227131;28;20043;-63
2023/06/16 00:59:42;;;;;;;2.42;1.70;;;;;;;17.57;45.23;100358.97;10226219;28;20067;-62
2023/06/16 01:04:46;;;;;;;4.28;2.00;;;;;;;17.60;45.31;100359.34;10228147;28;20379;-64
2023/06/16 01:09:56;;;;;;;3.65;1.75;;;;;;;17.61;45.57;100346.59;10226227;28;20054;-64
2023/06/16 01:15:07;;;;;;;2.80;2.00;;;;;;;17.57;45.61;100351.63;10205738;28;20739;-63
2023/06/16 01:20:12;;;;;;;4.60;2.22;;;;;;;17.51;45.80;100354.41;10229644;28;20048;-63
2023/06/16 01:25:15;;;;;;;2.95;1.95;;;;;;;17.51;45.65;100348.97;10225190;28;20043;-63
2023/06/16 01:30:17;;;;;;;3.10;2.15;;;;;;;17.49;45.76;100351.09;10224291;28;20079;-64
2023/06/16 01:35:21;;;;;;;2.80;2.28;;;;;;;17.44;46.06;100343.59;10224877;28;20051;-63
2023/06/16 01:40:24;;;;;;;4.30;2.20;;;;;;;17.43;46.27;100341.94;10227599;28;20403;-65
2023/06/16 01:45:27;;;;;;;4.32;2.03;;;;;;;17.35;46.72;100339.50;10226783;28;20047;-63
2023/06/16 01:50:29;;;;;;;4.18;1.92;;;;;;;17.25;47.25;100337.25;10224004;28;20050;-64
2023/06/16 01:55:31;;;;;;;2.03;1.83;;;;;;;17.18;47.48;100336.47;10226234;28;20051;-64
2023/06/16 02:00:37;;;;;;;3.45;2.10;;;;;;;17.09;47.68;100337.81;10229291;28;20094;-64
2023/06/16 02:05:41;;;;;;;5.20;1.70;;;;;;;17.05;47.75;100340.13;10224006;28;20044;-63
2023/06/16 02:10:43;;;;;;;3.92;2.05;;;;;;;16.97;47.85;100335.78;10228027;28;20058;-64
2023/06/16 02:15:45;;;;;;;4.70;2.08;;;;;;;16.94;47.82;100347.09;10221328;28;20487;-64
2023/06/16 02:20:46;;;;;;;4.97;2.10;;;;;;;16.94;47.42;100346.25;10227679;28;20044;-63
2023/06/16 02:25:48;;;;;;;3.08;2.10;;;;;;;16.92;47.48;100346.44;10224654;28;20036;-63
2023/06/16 02:30:49;;;;;;;4.45;1.70;;;;;;;16.91;47.34;100357.56;10223902;28;20051;-64
2023/06/16 02:35:50;;;;;;;4.95;1.80;;;;;;;16.90;47.48;100356.69;10221146;28;20079;-65
2023/06/16 02:40:52;;;;;;;7.60;1.92;;;;;;;16.80;47.82;100361.75;10220001;28;20054;-65
2023/06/16 02:45:54;;;;;;;6.03;2.10;;;;;;;16.70;47.73;100359.50;10229503;28;20054;-64
2023/06/16 02:50:55;;;;;;;8.25;2.88;;;;;;;16.64;47.93;100355.75;10221892;28;20051;-64
2023/06/16 02:55:58;;;;;;;5.30;1.95;;;;;;;16.71;47.74;100354.91;10222038;28;20032;-64
2023/06/16 03:00:59;;;;;;;5.20;1.83;;;;;;;16.77;47.94;100351.34;10220929;28;20529;-64
2023/06/16 03:06:01;;;;;;;4.85;2.30;;;;;;;16.79;48.02;100352.78;10206629;28;20047;-64
2023/06/16 03:11:03;;;;;;;4.65;2.38;;;;;;;16.74;48.67;100347.16;10224188;28;20047;-63
2023/06/16 03:16:05;;;;;;;4.03;2.08;;;;;;;16.71;48.80;100355.75;10223854;28;20043;-67
2023/06/16 03:21:07;;;;;;;3.15;2.28;;;;;;;16.55;49.12;100354.34;10219215;28;20043;-65
2023/06/16 03:26:08;;;;;;;4.80;2.33;;;;;;;16.57;49.31;100349.53;10217760;28;20058;-66
2023/06/16 03:31:10;;;;;;;5.60;2.03;;;;;;;16.72;49.04;100356.56;10210433;28;20451;-64
2023/06/16 03:36:12;;;;;;;4.65;1.95;;;;;;;16.80;49.04;100359.84;10224381;28;20058;-66
2023/06/16 03:41:13;;;;;;;3.38;2.13;;;;;;;16.84;49.14;100357.56;10222645;28;20039;-66
2023/06/16 03:46:15;;;;;;;4.97;2.20;;;;;;;16.90;49.41;100361.31;10219999;28;20403;-66
2023/06/16 03:51:17;;;;;;;3.67;2.33;;;;;;;16.98;49.17;100358.34;10224914;28;20053;-66
2023/06/16 03:56:19;;;;;;;3.90;2.60;;;;;;;17.07;49.10;100361.63;10223282;28;20069;-65
2023/06/16 04:01:22;;;;;;;5.55;2.60;;;;;;;17.18;49.35;100360.91;10233169;28;20514;-66
2023/06/16 04:06:24;;;;;;;7.22;3.08;;;;;;;17.29;48.99;100362.94;10233651;28;20051;-66
2023/06/16 04:11:26;;;;;;;7.03;2.30;;;;;;;17.38;49.11;100360.81;10231228;28;20043;-66
2023/06/16 04:16:27;;;;;;;3.65;2.47;;;;;;;17.50;48.96;100361.75;10230410;28;20036;-65
2023/06/16 04:21:31;;;;;;;7.82;2.75;;;;;;;17.63;49.05;100367.06;10241656;28;20507;-65
2023/06/16 04:26:32;;;;;;;5.32;2.78;;;;;;;17.75;49.21;100364.47;10233049;28;20039;-65
2023/06/16 04:31:35;;;;;;;5.07;2.22;;;;;;;17.82;48.91;100367.94;10233009;28;20330;-67
2023/06/16 04:36:41;;;;;;;4.15;2.28;;;;;;;17.88;48.73;100368.16;10218736;28;20035;-67
2023/06/16 04:41:42;;;;;;;6.13;2.17;;;;;;;18.02;48.74;100364.22;10246626;28;20471;-66
2023/06/16 04:46:44;;;;;;;2.95;2.00;;;;;;;18.12;48.57;100366.44;10242203;28;20501;-65
2023/06/16 04:51:45;;;;;;;6.03;2.70;;;;;;;18.26;48.73;100367.13;10250561;28;20047;-66
2023/06/16 04:56:47;;;;;;;4.40;2.30;;;;;;;18.42;48.66;100366.50;10259876;28;20039;-67
2023/06/16 05:01:49;;;;;;;7.60;2.15;;;;;;;18.56;49.17;100369.91;10260551;28;20118;-65
2023/06/16 05:06:51;;;;;;;5.25;2.28;;;;;;;18.67;49.28;100374.59;10261206;28;20072;-65
2023/06/16 05:11:52;;;;;;;6.78;1.77;;;;;;;18.85;49.44;100367.50;10257438;28;20037;-65
2023/06/16 05:16:53;;;;;;;4.63;2.22;;;;;;;18.96;49.65;100367.53;10678527;23;20043;-65
2023/06/16 05:21:55;;;;;;;4.32;2.35;;;;;;;19.10;49.61;100367.34;10300609;28;20060;-65
2023/06/16 05:26:56;;;;;;;5.03;2.70;;;;;;;19.21;49.25;100361.94;10288417;28;20046;-65
2023/06/16 05:31:58;;;;;;;10.40;3.65;;;;;;;19.38;49.48;100362.09;10263903;28;20057;-65
2023/06/16 05:37:00;;;;;;;9.73;2.20;;;;;;;19.60;49.25;100361.53;10246882;28;20067;-66
2023/06/16 05:42:01;;;;;;;2.72;2.08;;;;;;;19.77;48.99;100367.97;10252196;28;20058;-67
2023/06/16 05:47:03;;;;;;;4.53;2.00;;;;;;;20.00;49.19;100369.03;10226606;28;20429;-66
2023/06/16 05:52:06;;;;;;;8.55;2.58;;;;;;;20.21;48.50;100362.97;10231770;28;20173;-64
2023/06/16 05:57:07;;;;;;;8.23;2.30;;;;;;;20.41;47.38;100361.75;10225838;28;20039;-64
2023/06/16 06:02:09;;;;;;;4.20;1.58;;;;;;;20.62;47.24;100370.38;10225615;28;20110;-63
2023/06/16 06:07:13;;;;;;;3.78;1.73;;;;;;;20.85;46.39;100373.03;10227479;28;20043;-63
2023/06/16 06:12:15;;;;;;;2.83;1.98;;;;;;;21.04;45.04;100375.59;10223776;28;20047;-62
2023/06/16 06:17:16;;;;;;;6.80;2.33;;;;;;;21.22;43.91;100382.75;10222986;28;20043;-63
2023/06/16 06:22:18;;;;;;;1.88;1.27;;;;;;;21.43;43.57;100382.06;10227866;28;20404;-62
2023/06/16 06:27:19;;;;;;;3.75;1.52;;;;;;;21.61;42.53;100399.34;10222232;28;20047;-63
2023/06/16 06:32:21;;;;;;;9.50;2.08;;;;;;;21.76;42.51;100402.31;10230715;28;20557;-61
2023/06/16 06:37:29;;;;;;;6.15;1.80;;;;;;;21.95;41.81;100403.69;10225132;28;20047;-61
2023/06/16 06:42:30;;;;;;;4.32;1.52;;;;;;;22.11;41.69;100412.97;10226512;28;20052;-61
2023/06/16 06:47:31;;;;;;;2.92;1.50;;;;;;;22.30;40.82;100415.47;10226678;28;20056;-61
2023/06/16 06:52:33;;;;;;;2.85;1.33;;;;;;;22.51;41.15;100416.56;10225002;28;20058;-65
2023/06/16 06:57:34;;;;;;;2.75;2.10;;;;;;;22.58;40.29;100417.22;10219305;28;20044;-61
2023/06/16 07:02:36;;;;;;;2.88;1.65;;;;;;;22.77;39.89;100415.00;10241783;28;20097;-63
2023/06/16 07:07:38;;;;;;;2.85;1.50;;;;;;;23.01;39.82;100418.31;10301763;28;20054;-64
2023/06/16 07:12:39;;;;;;;8.55;1.60;;;;;;;23.19;39.37;100417.16;10288924;28;20043;-65
2023/06/16 07:17:41;;;;;;;2.70;1.38;;;;;;;23.33;39.22;100423.06;10305165;28;20497;-65
2023/06/16 07:22:45;;;;;;;9.30;1.52;;;;;;;23.49;38.84;100433.06;10301396;28;20511;-64
2023/06/16 07:27:46;;;;;;;2.38;1.80;;;;;;;23.45;38.31;100442.09;10300425;28;20042;-62
2023/06/16 07:32:49;;;;;;;3.03;1.95;;;;;;;23.54;38.06;100440.56;10302352;28;20043;-63
2023/06/16 07:37:51;;;;;;;3.67;1.58;;;;;;;23.82;37.89;100430.38;10300801;28;20049;-63
2023/06/16 07:42:52;;;;;;;2.70;1.48;;;;;;;23.95;37.62;100439.00;10303436;28;20054;-63
2023/06/16 07:47:54;;;;;;;3.70;1.42;;;;;;;24.08;37.78;100434.97;10305125;28;20395;-64
2023/06/16 07:52:55;;;;;;;4.15;1.58;;;;;;;24.26;37.27;100433.72;10304183;28;20457;-64
2023/06/16 07:57:57;;;;;;;7.43;1.63;;;;;;;24.42;37.09;100433.81;10305860;28;20043;-64
2023/06/16 08:02:58;;;;;;;2.03;1.38;;;;;;;24.60;36.82;100425.13;10304214;28;20119;-63
2023/06/16 08:08:00;;;;;;;4.82;1.60;;;;;;;24.83;36.79;100420.28;10303742;28;20058;-63
2023/06/16 08:13:01;;;;;;;3.75;1.90;;;;;;;25.03;36.91;100416.78;10299534;28;20529;-63
2023/06/16 08:18:03;;;;;;;8.80;2.33;;;;;;;25.18;36.80;100413.22;10298435;28;20046;-62
2023/06/16 08:23:04;;;;;;;3.63;1.70;;;;;;;25.33;36.50;100413.28;10300368;28;20102;-63
2023/06/16 08:28:07;;;;;;;4.97;1.55;;;;;;;25.47;36.16;100414.41;10300955;28;20135;-62
2023/06/16 08:33:09;;;;;;;2.92;1.40;;;;;;;25.52;35.34;100419.94;10304286;28;20051;-63
2023/06/16 08:38:11;;;;;;;4.82;1.60;;;;;;;25.47;35.48;100408.91;10299339;28;20053;-63
2023/06/16 08:43:14;;;;;;;2.88;1.35;;;;;;;25.60;35.02;100410.28;10299615;28;20406;-64
2023/06/16 08:48:16;;;;;;;6.75;1.90;;;;;;;25.63;35.09;100414.41;10308310;28;20074;-63
2023/06/16 08:53:20;;;;;;;2.70;1.63;;;;;;;25.88;34.84;100416.34;10302503;28;20042;-63
2023/06/16 08:58:21;;;;;;;1.80;1.50;;;;;;;26.07;34.65;100420.22;10310499;28;20050;-63
2023/06/16 09:03:25;;;;;;;3.78;1.85;;;;;;;26.25;34.13;100409.72;10309320;28;20046;-59
2023/06/16 09:08:28;;;;;;;4.72;1.63;;;;;;;26.36;34.22;100410.50;10312286;28;20109;-61
2023/06/16 09:13:29;;;;;;;2.00;1.42;;;;;;;26.48;33.80;100403.59;10311600;28;20125;-61
2023/06/16 09:18:41;;;;;;;1.85;1.40;;;;;;;26.66;33.78;100404.09;10311073;28;20513;-62
2023/06/16 09:23:43;;;;;;;4.68;1.65;;;;;;;26.87;33.18;100397.34;10309602;28;20050;-58
2023/06/16 09:28:45;;;;;;;3.20;1.52;;;;;;;27.09;33.34;100390.63;10309569;28;20042;-61
2023/06/16 09:33:47;;;;;;;3.65;1.33;;;;;;;27.17;32.63;100391.94;10301078;28;20046;-60
2023/06/16 09:38:50;;;;;;;3.88;1.90;;;;;;;26.90;32.16;100387.72;10308011;28;20045;-58
2023/06/16 09:43:51;;;;;;;2.33;1.65;;;;;;;26.89;32.42;100386.06;10308499;28;20057;-58
2023/06/16 09:48:53;;;;;;;2.63;1.90;;;;;;;26.93;32.53;100389.88;10308844;28;20066;-60
2023/06/16 09:53:55;;;;;;;6.53;1.40;;;;;;;27.26;32.31;100377.28;10309502;28;20051;-60
2023/06/16 09:58:56;;;;;;;10.82;1.52;;;;;;;27.63;31.83;100370.38;10304124;28;20062;-59
2023/06/16 10:03:58;;;;;;;4.57;1.65;;;;;;;28.07;31.20;100365.84;10294832;28;20046;-58
2023/06/16 10:09:00;;;;;;;3.72;1.30;;;;;;;28.35;30.62;100352.25;10308103;28;20054;-58
2023/06/16 10:14:06;;;;;;;1.50;1.25;;;;;;;28.17;29.84;100371.25;10307331;28;20046;-59
2023/06/16 10:19:08;;;;;;;3.45;1.30;;;;;;;28.00;29.74;100362.59;10307255;28;20037;-60
2023/06/16 10:24:10;;;;;;;1.30;1.00;;;;;;;28.05;29.22;100368.06;10304939;28;20085;-59
2023/06/16 10:29:16;;;;;;;2.80;1.40;;;;;;;28.20;29.37;100359.63;10304699;28;20078;-59
2023/06/16 10:34:19;;;;;;;3.67;1.80;;;;;;;28.31;28.73;100359.50;10305701;28;20053;-61
2023/06/16 10:39:21;;;;;;;4.55;1.35;;;;;;;28.63;28.29;100353.31;10303396;28;20062;-58
2023/06/16 10:44:32;;;;;;;3.08;1.38;;;;;;;28.83;27.55;100360.50;10305497;28;20061;-58
2023/06/16 10:49:43;;;;;;;1.98;1.38;;;;;;;29.02;26.90;100349.44;10304492;28;20130;-58
2023/06/16 10:54:48;;;;;;;4.70;1.45;;;;;;;29.24;26.11;100344.13;10309803;28;20054;-58
2023/06/16 10:59:56;;;;;;;3.80;1.00;;;;;;;29.38;26.10;100344.19;10300827;28;20379;-60
2023/06/16 11:05:09;;;;;;;2.05;1.30;;;;;;;29.42;26.22;100339.72;10310884;28;20062;-58
2023/06/16 11:10:16;;;;;;;3.78;1.20;;;;;;;29.00;26.03;100335.91;10304193;28;20067;-58
2023/06/16 11:15:19;;;;;;;2.25;1.20;;;;;;;28.53;25.96;100332.13;10303553;28;20062;-62
2023/06/16 11:20:21;;;;;;;3.83;1.23;;;;;;;28.61;26.06;100331.47;10303483;28;20046;-58
2023/06/16 11:25:23;;;;;;;5.75;1.30;;;;;;;28.90;25.15;100329.72;10316186;28;20074;-61
2023/06/16 11:30:25;;;;;;;1.73;1.10;;;;;;;29.20;25.11;100323.72;10309437;28;20042;-60
2023/06/16 11:35:31;;;;;;;4.95;1.25;;;;;;;29.67;25.08;100316.25;10311234;28;20043;-60
2023/06/16 11:40:32;;;;;;;1.90;0.98;;;;;;;30.11;23.80;100313.25;10308367;28;20052;-61
2023/06/16 11:45:38;;;;;;;1.55;1.20;;;;;;;30.13;23.88;100322.91;10315916;28;20046;-63
2023/06/16 11:50:40;;;;;;;1.30;1.00;;;;;;;30.17;24.22;100326.69;10314413;28;20051;-63
2023/06/16 11:55:47;;;;;;;3.60;1.48;;;;;;;30.15;23.92;100320.63;10320848;28;20050;-61
2023/06/16 12:00:50;;;;;;;1.60;1.50;;;;;;;30.04;23.69;100325.56;10320368;28;20053;-61
2023/06/16 12:05:53;;;;;;;3.78;2.33;;;;;;;29.83;24.61;100316.00;10320648;28;20124;-60
2023/06/16 12:10:55;;;;;;;1.98;0.95;;;;;;;29.69;24.51;100312.38;10293893;28;20077;-62
2023/06/16 12:15:57;;;;;;;2.50;1.35;;;;;;;29.42;24.56;100314.78;10312826;28;20049;-61
2023/06/16 12:21:14;;;;;;;5.03;1.58;;;;;;;29.11;25.11;100311.66;10327594;28;20682;-66
2023/06/16 12:26:28;;;;;;;2.30;1.73;;;;;;;28.87;25.14;100312.59;10330772;28;20046;-59
2023/06/16 12:31:31;;;;;;;1.80;1.30;;;;;;;29.31;25.13;100316.06;10333553;28;20043;-62
2023/06/16 12:36:39;;;;;;;2.38;1.67;;;;;;;28.92;25.37;100306.13;10339046;28;20042;-64
2023/06/16 12:41:41;;;;;;;4.18;1.60;;;;;;;29.25;25.48;100308.97;10330015;28;20172;-67
2023/06/16 12:46:42;;;;;;;3.40;1.17;;;;;;;28.86;26.05;100302.63;10326518;28;20069;-69
2023/06/16 12:51:44;;;;;;;3.35;1.30;;;;;;;28.59;26.53;100296.94;10344167;28;20053;-69
2023/06/16 12:56:45;;;;;;;2.13;1.38;;;;;;;28.94;25.66;100294.78;10319403;28;20420;-69
2023/06/16 13:01:47;;;;;;;5.65;2.25;;;;;;;29.53;25.19;100304.34;10321130;28;20046;-70
2023/06/16 13:06:48;;;;;;;3.33;1.30;;;;;;;30.50;25.02;100296.09;10317347;28;20077;-70
2023/06/16 13:11:52;;;;;;;2.78;1.92;;;;;;;31.21;23.73;100299.16;10312625;28;20451;-72
2023/06/16 13:16:54;;;;;;;3.80;1.52;;;;;;;31.51;23.69;100295.97;10314584;28;20173;-71
2023/06/16 13:21:57;;;;;;;3.55;1.10;;;;;;;31.58;24.09;100297.16;10331719;28;20050;-69
2023/06/16 13:26:59;;;;;;;3.28;1.10;;;;;;;31.48;23.74;100291.03;10335003;28;20688;-69
2023/06/16 13:32:00;;;;;;;5.80;1.30;;;;;;;31.86;24.13;100291.38;10338062;28;20072;-69
2023/06/16 13:37:02;;;;;;;2.25;1.05;;;;;;;32.00;23.41;100291.28;10339342;28;20042;-68
2023/06/16 13:42:03;;;;;;;1.38;1.00;;;;;;;32.93;22.71;100272.63;10317379;28;20046;-68
2023/06/16 13:47:05;;;;;;;2.78;1.20;;;;;;;34.10;21.40;100267.72;10317860;28;20069;-68
2023/06/16 13:52:07;;;;;;;3.47;1.30;;;;;;;33.50;21.55;100268.81;10312880;28;20449;-68
2023/06/16 13:57:09;;;;;;;2.50;0.98;;;;;;;34.50;21.16;100267.34;10303174;28;20046;-69
2023/06/16 14:02:11;;;;;;;6.03;2.08;;;;;;;34.51;20.59;100268.97;10323966;28;20058;-70
2023/06/16 14:07:12;;;;;;;4.05;1.20;;;;;;;33.80;20.62;100266.09;10311985;28;20121;-72
2023/06/16 14:12:14;;;;;;;3.17;1.20;;;;;;;33.13;21.57;100260.84;10297019;28;20129;-71
2023/06/16 14:17:15;;;;;;;3.72;1.38;;;;;;;32.64;22.08;100257.41;10314633;28;20050;-71
2023/06/16 14:22:17;;;;;;;2.70;1.42;;;;;;;32.21;22.62;100244.25;10308023;28;20060;-71
2023/06/16 14:27:18;;;;;;;1.92;1.15;;;;;;;31.79;22.78;100239.03;10319983;28;20125;-72
2023/06/16 14:32:20;;;;;;;1.75;1.45;;;;;;;31.47;23.28;100237.41;10305915;28;20054;-71
2023/06/16 14:37:21;;;;;;;1.40;1.20;;;;;;;31.21;23.22;100240.84;10302949;28;20045;-68
2023/06/16 14:42:23;;;;;;;3.92;1.52;;;;;;;30.99;23.73;100235.31;10300248;28;20062;-69
2023/06/16 14:47:25;;;;;;;2.25;1.30;;;;;;;30.84;23.80;100231.72;10321728;28;20054;-64
2023/06/16 14:52:26;;;;;;;2.95;1.92;;;;;;;30.76;23.84;100231.69;10312988;28;20497;-62
2023/06/16 14:57:28;;;;;;;4.20;1.38;;;;;;;30.61;24.25;100236.47;10319129;28;20046;-64
2023/06/16 15:02:29;;;;;;;1.83;0.98;;;;;;;30.47;24.23;100229.31;10336122;28;20111;-65
2023/06/16 15:07:31;;;;;;;2.55;1.48;;;;;;;31.06;23.66;100229.31;10329561;28;20055;-66
2023/06/16 15:12:32;;;;;;;1.88;1.45;;;;;;;31.61;22.45;100223.41;10337949;28;20061;-65
2023/06/16 15:17:34;;;;;;;5.28;1.45;;;;;;;32.40;21.79;100216.09;10333218;28;20111;-65
2023/06/16 15:22:36;;;;;;;3.60;1.67;;;;;;;33.02;21.20;100208.56;10339999;28;20144;-65
2023/06/16 15:27:37;;;;;;;4.95;1.50;;;;;;;33.88;20.15;100203.88;10335867;28;20110;-67
2023/06/16 15:32:39;;;;;;;2.03;1.35;;;;;;;34.22;19.55;100204.81;10310894;28;20050;-65
2023/06/16 15:37:40;;;;;;;1.88;1.40;;;;;;;34.65;19.50;100201.69;10313244;28;20102;-66
2023/06/16 15:42:46;;;;;;;4.07;1.35;;;;;;;35.33;19.19;100201.38;10327061;28;20057;-64
2023/06/16 15:47:47;;;;;;;2.88;1.30;;;;;;;35.62;18.55;100193.09;10327396;28;20053;-61
2023/06/16 15:52:49;;;;;;;4.00;1.20;;;;;;;35.13;18.79;100188.22;10332738;28;20054;-63
2023/06/16 15:57:51;;;;;;;3.63;1.30;;;;;;;34.94;18.68;100186.00;10319169;28;20043;-63
2023/06/16 16:02:53;;;;;;;2.72;1.65;;;;;;;35.53;18.13;100176.44;10330082;28;20413;-61
2023/06/16 16:07:54;;;;;;;3.10;1.45;;;;;;;35.20;18.38;100187.72;10324063;28;20054;-61
2023/06/16 16:12:56;;;;;;;1.80;1.40;;;;;;;35.41;18.29;100182.00;10323143;28;20061;-62
2023/06/16 16:17:57;;;;;;;4.13;1.10;;;;;;;35.33;18.72;100183.78;10321387;28;20050;-62
2023/06/16 16:22:59;;;;;;;2.33;1.50;;;;;;;34.99;18.62;100182.97;10328139;28;20055;-63
2023/06/16 16:28:01;;;;;;;2.85;1.30;;;;;;;34.32;19.17;100180.13;10316368;28;20054;-63
2023/06/16 16:33:02;;;;;;;5.05;1.52;;;;;;;33.76;20.08;100171.94;10308500;28;20051;-64
2023/06/16 16:38:04;;;;;;;5.70;1.73;;;;;;;33.15;20.34;100179.72;10306867;28;20090;-63
2023/06/16 16:43:05;;;;;;;2.30;1.77;;;;;;;32.70;20.91;100174.53;10307593;28;20043;-62
2023/06/16 16:48:10;;;;;;;3.35;1.63;;;;;;;32.41;21.68;100173.22;10302108;28;20287;-64
2023/06/16 16:53:12;;;;;;;5.25;1.40;;;;;;;32.49;21.37;100166.84;10308110;28;20050;-64
2023/06/16 16:58:13;;;;;;;3.65;1.70;;;;;;;32.26;21.43;100176.50;10304941;28;20055;-64
2023/06/16 17:03:14;;;;;;;4.80;2.47;;;;;;;31.78;21.65;100173.44;10304795;28;20050;-63
2023/06/16 17:08:16;;;;;;;3.63;2.33;;;;;;;30.81;22.24;100187.16;10314677;28;20405;-63
2023/06/16 17:13:17;;;;;;;3.67;1.75;;;;;;;30.16;22.64;100191.97;10309136;28;20039;-66
2023/06/16 17:18:19;;;;;;;4.55;2.65;;;;;;;29.49;23.84;100197.22;10318571;28;20042;-63
2023/06/16 17:23:21;;;;;;;4.50;2.10;;;;;;;29.39;23.35;100190.75;10315662;28;20374;-63
2023/06/16 17:28:22;;;;;;;4.53;1.67;;;;;;;29.58;23.39;100192.59;10311739;28;20043;-65
2023/06/16 17:33:23;;;;;;;4.57;2.17;;;;;;;29.85;24.84;100192.63;10309106;28;20050;-61
2023/06/16 17:38:25;;;;;;;3.25;1.70;;;;;;;30.13;25.19;100189.00;10314446;28;20050;-62
2023/06/16 17:43:26;;;;;;;4.78;2.13;;;;;;;30.42;25.67;100194.19;10310622;28;20405;-61
2023/06/16 17:48:28;;;;;;;3.47;1.83;;;;;;;30.49;24.58;100191.81;10307744;28;20043;-62
2023/06/16 17:53:29;;;;;;;2.97;1.70;;;;;;;29.99;25.87;100186.25;10309646;28;20038;-64
2023/06/16 17:58:32;;;;;;;6.72;2.80;;;;;;;29.50;26.35;100185.00;10295290;28;20060;-62
2023/06/16 18:03:33;;;;;;;3.67;2.28;;;;;;;29.32;26.56;100184.78;10311837;28;20050;-60
2023/06/16 18:08:35;;;;;;;4.70;1.90;;;;;;;29.45;26.90;100174.84;10309802;28;20050;-67
2023/06/16 18:13:37;;;;;;;3.17;2.38;;;;;;;29.58;26.30;100175.97;10308873;28;20043;-62
2023/06/16 18:18:39;;;;;;;3.20;1.83;;;;;;;29.17;26.62;100169.28;10306196;28;20048;-65
2023/06/16 18:23:40;;;;;;;4.15;1.90;;;;;;;28.73;27.06;100180.81;10309298;28;20529;-62
2023/06/16 18:28:42;;;;;;;4.35;1.85;;;;;;;28.65;27.15;100174.88;10313731;28;20042;-62
2023/06/16 18:33:43;;;;;;;5.03;2.25;;;;;;;28.29;27.37;100169.81;10314204;28;20050;-64
2023/06/16 18:38:49;;;;;;;3.60;2.08;;;;;;;27.97;28.33;100172.53;10311388;28;20039;-61
2023/06/16 18:43:51;;;;;;;4.68;2.03;;;;;;;27.66;28.95;100178.38;10309553;28;20410;-66
2023/06/16 18:48:52;;;;;;;3.03;2.10;;;;;;;27.29;29.45;100183.50;10309805;28;20133;-61
2023/06/16 18:53:54;;;;;;;5.95;2.10;;;;;;;27.12;29.65;100183.09;10305825;28;20062;-64
2023/06/16 18:58:56;;;;;;;5.50;2.08;;;;;;;27.00;30.07;100180.72;10308507;28;22677;-65
2023/06/16 19:03:57;;;;;;;2.53;1.73;;;;;;;26.61;31.18;100187.09;10312547;28;20046;-63
2023/06/16 19:08:59;;;;;;;6.78;2.00;;;;;;;26.41;31.88;100184.47;10310216;28;20046;-62
2023/06/16 19:14:00;;;;;;;3.72;2.22;;;;;;;26.30;32.16;100184.53;10310466;28;20049;-62
2023/06/16 19:19:02;;;;;;;5.40;2.50;;;;;;;26.26;33.00;100185.38;10313835;28;20046;-62
2023/06/16 19:24:04;;;;;;;5.57;1.95;;;;;;;26.17;33.68;100182.41;10312476;28;20047;-63
2023/06/16 19:29:06;;;;;;;5.88;2.67;;;;;;;26.03;34.52;100179.44;10306770;28;20046;-68
2023/06/16 19:34:08;;;;;;;5.45;2.40;;;;;;;25.83;34.76;100191.34;10305512;28;20048;-60
2023/06/16 19:39:10;;;;;;;3.80;2.40;;;;;;;25.55;35.32;100194.75;10307674;28;20042;-61
2023/06/16 19:44:12;;;;;;;4.70;2.67;;;;;;;25.29;36.11;100198.38;10305386;28;20051;-63
2023/06/16 19:49:13;;;;;;;10.40;6.78;;;;;;;25.14;36.23;100212.13;10305361;28;20639;-62
2023/06/16 19:54:15;;;;;;;7.05;3.35;;;;;;;24.97;37.47;100217.09;10305997;28;20042;-65
2023/06/16 19:59:17;;;;;;;6.93;3.55;;;;;;;24.76;38.05;100222.56;10303230;28;20055;-62
2023/06/16 20:04:18;;;;;;;7.97;2.97;;;;;;;24.49;39.00;100231.03;10308453;28;20045;-61
2023/06/16 20:09:23;;;;;;;6.30;3.55;;;;;;;24.15;39.75;100243.31;10303783;28;20125;-62
2023/06/16 20:14:24;;;;;;;6.30;3.28;;;;;;;23.86;40.11;100251.13;10307777;28;20066;-60
2023/06/16 20:19:28;;;;;;;2.85;2.33;;;;;;;23.67;39.21;100242.47;10307426;28;20027;-61
2023/06/16 20:24:29;;;;;;;7.72;2.60;;;;;;;23.48;39.33;100263.22;10306903;28;20050;-61
2023/06/16 20:29:31;;;;;;;7.03;3.25;;;;;;;23.39;39.47;100251.91;10305111;28;20050;-61
2023/06/16 20:34:33;;;;;;;6.65;3.88;;;;;;;23.16;39.60;100261.31;10299389;28;20061;-61
2023/06/16 20:39:34;;;;;;;7.43;4.13;;;;;;;22.99;40.02;100271.59;10303649;28;20046;-62
2023/06/16 20:44:37;;;;;;;4.82;4.20;;;;;;;22.84;40.23;100266.78;10306287;28;20049;-65
2023/06/16 20:49:40;;;;;;;4.57;2.83;;;;;;;22.51;40.87;100271.38;10297585;28;20046;-62
2023/06/16 20:54:42;;;;;;;7.35;3.08;;;;;;;22.13;41.27;100273.09;10290149;28;20061;-65
2023/06/16 20:59:44;;;;;;;4.07;3.35;;;;;;;21.98;41.42;100277.28;10305974;28;20116;-60
2023/06/16 21:04:47;;;;;;;4.95;3.25;;;;;;;21.88;41.93;100271.69;10315933;28;20050;-69
2023/06/16 21:09:49;;;;;;;7.45;3.50;;;;;;;21.86;41.82;100270.25;10317028;28;20047;-68
2023/06/16 21:14:51;;;;;;;10.00;4.82;;;;;;;21.78;41.67;100271.53;10310139;28;20046;-68
2023/06/16 21:19:52;;;;;;;6.20;3.50;;;;;;;21.74;41.88;100267.63;10313717;28;20043;-68
2023/06/16 21:24:54;;;;;;;7.35;3.58;;;;;;;21.65;42.37;100269.16;10311835;28;20050;-67
2023/06/16 21:29:56;;;;;;;3.33;3.00;;;;;;;21.56;42.76;100266.88;10314728;28;20047;-68
2023/06/16 21:34:58;;;;;;;7.53;3.42;;;;;;;21.47;43.38;100276.56;10312343;28;20051;-70
2023/06/16 21:40:09;;;;;;;7.10;4.10;;;;;;;21.37;43.63;100271.72;10317689;28;20039;-68
2023/06/16 21:45:13;;;;;;;5.95;4.28;;;;;;;21.19;43.56;100272.81;10309934;28;20054;-67
2023/06/16 21:50:15;;;;;;;7.53;4.78;;;;;;;21.02;44.26;100273.88;10305546;28;20077;-67
2023/06/16 21:55:16;;;;;;;10.48;5.05;;;;;;;20.97;43.76;100277.34;10299240;28;20058;-67
2023/06/16 22:00:18;;;;;;;6.32;4.28;;;;;;;20.73;44.00;100282.09;10310432;28;20045;-67
2023/06/16 22:05:20;;;;;;;7.90;4.70;;;;;;;20.67;44.19;100283.91;10307499;28;20060;-66
2023/06/16 22:10:21;;;;;;;5.50;3.90;;;;;;;20.55;44.44;100270.28;10308839;28;20484;-67
2023/06/16 22:15:23;;;;;;;4.75;3.95;;;;;;;20.36;44.98;100272.38;10308400;28;20042;-67
2023/06/16 22:20:24;;;;;;;7.63;4.30;;;;;;;20.30;44.63;100276.09;10311646;28;20057;-67
2023/06/16 22:25:26;;;;;;;6.70;4.20;;;;;;;20.23;44.76;100274.56;10308173;28;20050;-67
2023/06/16 22:30:29;;;;;;;9.50;4.32;;;;;;;20.12;45.10;100273.50;10305703;28;20030;-67
2023/06/16 22:35:31;;;;;;;8.60;4.43;;;;;;;20.04;45.26;100271.16;10305408;28;20073;-68
2023/06/16 22:40:32;;;;;;;9.77;4.53;;;;;;;19.95;45.56;100271.53;10311129;28;21720;-67
2023/06/16 22:45:33;;;;;;;5.47;4.05;;;;;;;19.84;46.05;100277.81;10321964;28;20453;-67
2023/06/16 22:50:35;;;;;;;7.10;4.07;;;;;;;19.74;46.53;100281.16;10304149;28;20117;-67
2023/06/16 22:55:39;;;;;;;11.00;4.18;;;;;;;19.67;46.63;100271.41;10300062;28;20050;-67
2023/06/16 23:00:41;;;;;;;4.75;3.45;;;;;;;19.54;46.84;100278.75;10319610;28;20142;-68
2023/06/16 23:05:43;;;;;;;6.70;3.75;;;;;;;19.46;47.37;100272.84;10303227;28;20509;-67
2023/06/16 23:10:44;;;;;;;6.95;3.95;;;;;;;19.34;47.29;100289.19;10299353;28;20048;-69